Terminal Aerodrome Forecast
Issued by NWS Cleveland, OH

Home | Current Version | Previous Version | Graphics & Text | Print | Product List | Glossary On
Versions: 1 2 3 4 5 6 7 8 9 10 11 12 13 14 15 16 17 18 19
964
FTUS41 KCLE 130527
TAFCAK
TAF
KCAK 130527Z 1306/1406 29010G20KT 1/2SM SN BLSN OVC008
     FM130630 29012KT 2SM -SHSN OVC015
     FM130800 30012KT P6SM BKN025
     FM131300 30012KT 4SM -SHSN OVC025
     FM131600 31014KT 2SM -SHSN OVC018
     FM132200 30012KT 6SM -SHSN BKN035=

USA.gov is the U.S. government's official web portal to all federal, state and local government web resources and services.